createdAt,value
2018-12-13T00:00:05.499Z,9.70
2018-12-13T00:02:33.317Z,9.73
2018-12-13T00:05:01.139Z,9.57
2018-12-13T00:07:28.911Z,9.80
2018-12-13T00:09:56.770Z,10.17
2018-12-13T00:12:24.517Z,9.60
2018-12-13T00:14:52.237Z,9.33
2018-12-13T00:17:19.999Z,10.37
2018-12-13T00:19:47.742Z,9.70
2018-12-13T00:22:15.520Z,8.93
2018-12-13T00:24:43.980Z,9.87
2018-12-13T00:27:11.824Z,9.10
2018-12-13T00:29:39.533Z,9.27
2018-12-13T00:32:07.320Z,9.73
2018-12-13T00:34:35.192Z,9.93
2018-12-13T00:37:02.988Z,8.87
2018-12-13T00:39:30.780Z,9.17
2018-12-13T00:41:58.595Z,9.43
2018-12-13T00:44:26.339Z,9.53
2018-12-13T00:46:54.077Z,9.00
2018-12-13T00:49:21.862Z,9.43
2018-12-13T00:51:49.639Z,9.40
2018-12-13T00:54:17.386Z,9.13
2018-12-13T00:56:45.233Z,9.10
2018-12-13T00:59:12.974Z,9.23
2018-12-13T01:01:40.748Z,8.57
2018-12-13T01:04:08.616Z,8.97
2018-12-13T01:06:36.415Z,9.60
2018-12-13T01:09:05.440Z,9.43
2018-12-13T01:11:33.224Z,9.50
2018-12-13T01:14:01.065Z,10.10
2018-12-13T01:16:28.813Z,9.50
2018-12-13T01:18:56.588Z,9.20
2018-12-13T01:21:24.355Z,9.20
2018-12-13T01:23:52.176Z,8.93
2018-12-13T01:26:19.928Z,9.80
2018-12-13T01:28:47.648Z,9.17
2018-12-13T01:31:15.429Z,8.70
2018-12-13T01:33:43.177Z,8.83
2018-12-13T01:36:10.937Z,9.80
2018-12-13T01:38:38.732Z,9.03
2018-12-13T01:41:06.472Z,9.00
2018-12-13T01:43:34.227Z,8.60
2018-12-13T01:46:01.976Z,8.60
2018-12-13T01:48:29.714Z,8.73
2018-12-13T01:50:57.472Z,8.43
2018-12-13T01:53:25.238Z,9.53
2018-12-13T01:55:53.000Z,8.90
2018-12-13T01:58:20.744Z,8.53
2018-12-13T02:00:48.477Z,7.97
2018-12-13T02:03:16.206Z,8.23
2018-12-13T02:05:44.066Z,7.30
2018-12-13T02:08:11.835Z,7.70
2018-12-13T02:10:39.580Z,7.67
2018-12-13T02:13:07.349Z,7.70
2018-12-13T02:15:35.053Z,7.60
2018-12-13T02:18:02.793Z,8.40
2018-12-13T02:20:31.464Z,8.17
2018-12-13T02:22:59.208Z,8.03
2018-12-13T02:25:26.960Z,8.80
2018-12-13T02:27:54.813Z,8.67
2018-12-13T02:30:23.587Z,8.10
2018-12-13T02:32:51.321Z,8.17
2018-12-13T02:35:19.088Z,8.50
2018-12-13T02:37:46.876Z,8.10
2018-12-13T02:40:15.352Z,8.17
2018-12-13T02:42:43.097Z,7.73
2018-12-13T02:45:10.867Z,7.50
2018-12-13T02:47:38.589Z,8.27
2018-12-13T02:50:06.492Z,7.00
2018-12-13T02:52:34.306Z,7.90
2018-12-13T02:55:02.118Z,7.23
2018-12-13T02:57:29.888Z,7.17
2018-12-13T02:59:57.650Z,8.00
2018-12-13T03:02:25.365Z,6.97
2018-12-13T03:04:53.141Z,7.37
2018-12-13T03:07:20.878Z,7.60
2018-12-13T03:09:48.577Z,7.30
2018-12-13T03:12:16.355Z,7.30
2018-12-13T03:14:44.625Z,8.20
2018-12-13T03:17:12.525Z,7.97
2018-12-13T03:19:40.263Z,7.87
2018-12-13T03:22:08.009Z,7.83
2018-12-13T03:24:35.799Z,7.60
2018-12-13T03:27:03.534Z,8.03
2018-12-13T03:29:31.316Z,8.93
2018-12-13T03:31:59.070Z,9.17
2018-12-13T03:34:26.884Z,8.67
2018-12-13T03:36:54.651Z,9.37
2018-12-13T03:39:22.417Z,9.43
2018-12-13T03:41:50.177Z,9.00
2018-12-13T03:44:17.931Z,9.57
2018-12-13T03:46:45.831Z,10.40
2018-12-13T03:49:13.698Z,9.87
2018-12-13T03:51:41.440Z,9.90
2018-12-13T03:54:09.190Z,9.73
2018-12-13T03:56:36.921Z,10.47
2018-12-13T03:59:04.702Z,10.97
2018-12-13T04:01:32.489Z,10.33
2018-12-13T04:04:00.225Z,10.97
2018-12-13T04:06:27.982Z,10.80
2018-12-13T04:08:55.735Z,10.50
2018-12-13T04:11:23.493Z,10.80
2018-12-13T04:13:51.286Z,10.73
2018-12-13T04:16:19.123Z,11.47
2018-12-13T04:18:47.139Z,10.93
2018-12-13T04:21:14.924Z,11.27
2018-12-13T04:23:42.647Z,11.23
2018-12-13T04:26:10.416Z,11.27
2018-12-13T04:28:38.156Z,10.67
2018-12-13T04:31:05.857Z,11.67
2018-12-13T04:33:33.617Z,10.00
2018-12-13T04:36:01.344Z,10.77
2018-12-13T04:38:29.073Z,10.77
2018-12-13T04:40:56.817Z,10.67
2018-12-13T04:43:24.569Z,10.90
2018-12-13T04:45:52.297Z,10.10
2018-12-13T04:48:20.085Z,11.07
2018-12-13T04:50:47.856Z,10.07
2018-12-13T04:53:15.617Z,9.73
2018-12-13T04:55:43.363Z,9.40
2018-12-13T04:58:11.085Z,9.47
2018-12-13T05:00:38.890Z,9.60
2018-12-13T05:03:06.669Z,8.97
2018-12-13T05:05:34.392Z,7.63
2018-12-13T05:08:02.103Z,8.07
2018-12-13T05:10:43.164Z,8.20
2018-12-13T05:13:10.860Z,8.03
2018-12-13T05:15:38.612Z,7.97
2018-12-13T05:18:06.353Z,8.40
2018-12-13T05:20:34.908Z,9.00
2018-12-13T05:23:02.609Z,9.17
2018-12-13T05:25:30.408Z,9.10
2018-12-13T05:27:58.234Z,8.20
2018-12-13T05:30:25.993Z,8.00
2018-12-13T05:32:53.719Z,7.67
2018-12-13T05:35:21.473Z,7.80
2018-12-13T05:37:49.205Z,7.27
2018-12-13T05:40:16.947Z,7.97
2018-12-13T05:42:44.735Z,7.20
2018-12-13T05:45:12.528Z,7.20
2018-12-13T05:47:40.354Z,7.33
2018-12-13T05:50:08.316Z,8.17
2018-12-13T05:52:36.008Z,7.20
2018-12-13T05:55:04.013Z,7.67
2018-12-13T05:57:31.789Z,8.27
2018-12-13T05:59:59.602Z,7.50
2018-12-13T06:02:27.408Z,6.63
2018-12-13T06:04:55.176Z,6.77
2018-12-13T06:07:22.921Z,6.30
2018-12-13T06:09:50.684Z,6.50
2018-12-13T06:12:18.430Z,7.23
2018-12-13T06:14:46.179Z,8.10
2018-12-13T06:17:13.978Z,8.60
2018-12-13T06:19:41.722Z,7.57
2018-12-13T06:22:09.530Z,8.60
2018-12-13T06:24:37.920Z,8.87
2018-12-13T06:27:05.687Z,8.63
2018-12-13T06:29:33.453Z,8.00
2018-12-13T06:32:01.182Z,8.17
2018-12-13T06:34:28.942Z,8.27
2018-12-13T06:36:56.718Z,7.93
2018-12-13T06:39:24.563Z,7.87
2018-12-13T06:41:52.325Z,7.87
2018-12-13T06:44:20.109Z,7.50
2018-12-13T06:46:47.846Z,7.80
2018-12-13T06:49:15.596Z,6.90
2018-12-13T06:51:43.360Z,7.10
2018-12-13T06:54:11.101Z,7.27
2018-12-13T06:56:38.869Z,6.60
2018-12-13T06:59:06.617Z,6.80
2018-12-13T07:01:34.397Z,6.67
2018-12-13T07:04:02.375Z,6.20
2018-12-13T07:06:31.121Z,6.13
2018-12-13T07:08:58.925Z,6.37
2018-12-13T07:11:26.642Z,5.67
2018-12-13T07:13:54.412Z,5.90
2018-12-13T07:16:22.194Z,6.13
2018-12-13T07:18:49.990Z,5.27
2018-12-13T07:21:17.751Z,5.13
2018-12-13T07:23:45.566Z,5.10
2018-12-13T07:26:13.378Z,5.77
2018-12-13T07:28:41.138Z,5.30
2018-12-13T07:31:08.901Z,5.30
2018-12-13T07:33:36.600Z,5.40
2018-12-13T07:36:04.368Z,5.40
2018-12-13T07:38:32.084Z,5.00
2018-12-13T07:40:59.900Z,4.60
2018-12-13T07:43:27.652Z,5.10
2018-12-13T07:45:55.343Z,5.23
2018-12-13T07:49:27.715Z,5.00
2018-12-13T07:51:55.493Z,5.33
2018-12-13T07:54:23.252Z,5.97
2018-12-13T07:56:50.956Z,5.13
2018-12-13T07:59:18.803Z,5.50
2018-12-13T08:01:46.720Z,5.40
2018-12-13T08:04:14.856Z,5.60
2018-12-13T08:06:42.728Z,5.13
2018-12-13T08:09:10.510Z,5.63
2018-12-13T08:11:38.278Z,5.77
2018-12-13T08:14:06.068Z,6.47
2018-12-13T08:16:33.840Z,5.60
2018-12-13T08:19:02.182Z,5.97
2018-12-13T08:21:30.104Z,6.30
2018-12-13T08:23:57.866Z,5.83
2018-12-13T08:26:25.643Z,6.33
2018-12-13T08:28:53.361Z,5.67
2018-12-13T08:31:21.129Z,6.10
2018-12-13T08:33:49.146Z,5.37
2018-12-13T08:36:16.888Z,5.33
2018-12-13T08:38:44.709Z,5.73
2018-12-13T08:41:12.428Z,5.80
2018-12-13T08:43:40.198Z,5.03
2018-12-13T08:46:08.037Z,5.60
2018-12-13T08:48:35.801Z,4.97
2018-12-13T08:51:03.677Z,5.80
2018-12-13T08:53:31.838Z,5.33
2018-12-13T08:55:59.615Z,5.23
2018-12-13T08:58:27.611Z,5.47
2018-12-13T09:00:55.405Z,5.43
2018-12-13T09:03:23.215Z,4.80
2018-12-13T09:05:50.954Z,5.40
2018-12-13T09:08:18.718Z,5.03
2018-12-13T09:10:46.420Z,4.90
2018-12-13T09:13:15.035Z,4.80
2018-12-13T09:15:42.794Z,4.87
2018-12-13T09:18:10.584Z,4.77
2018-12-13T09:20:38.294Z,5.53
2018-12-13T09:23:06.117Z,6.17
2018-12-13T09:25:33.868Z,5.13
2018-12-13T09:28:01.598Z,5.17
2018-12-13T09:30:29.344Z,5.23
2018-12-13T09:32:57.125Z,5.07
2018-12-13T09:35:24.949Z,5.27
2018-12-13T09:37:52.745Z,5.60
2018-12-13T09:40:20.542Z,5.50
2018-12-13T09:42:48.276Z,5.27
2018-12-13T09:45:16.113Z,4.90
2018-12-13T09:47:43.873Z,5.63
2018-12-13T09:50:11.796Z,5.57
2018-12-13T09:52:39.713Z,5.90
2018-12-13T09:55:07.485Z,5.57
2018-12-13T09:57:35.589Z,5.90
2018-12-13T10:00:05.116Z,6.73
2018-12-13T10:02:32.908Z,6.00
2018-12-13T10:05:00.648Z,7.10
2018-12-13T10:07:28.392Z,6.63
2018-12-13T10:09:56.114Z,6.23
2018-12-13T10:12:23.903Z,6.07
2018-12-13T10:14:51.665Z,6.80
2018-12-13T10:17:19.455Z,6.90
2018-12-13T10:19:47.272Z,6.37
2018-12-13T10:22:15.048Z,5.77
2018-12-13T10:24:42.805Z,5.70
2018-12-13T10:27:10.572Z,6.20
2018-12-13T10:29:38.338Z,6.00
2018-12-13T10:32:06.135Z,5.80
2018-12-13T10:34:33.916Z,5.83
2018-12-13T10:37:01.700Z,6.10
2018-12-13T10:39:30.145Z,6.13
2018-12-13T10:41:57.874Z,6.43
2018-12-13T10:44:32.844Z,6.30
2018-12-13T10:47:00.629Z,6.07
2018-12-13T10:49:28.549Z,5.83
2018-12-13T10:51:56.304Z,6.50
2018-12-13T10:54:24.190Z,6.33
2018-12-13T10:56:51.977Z,6.23
2018-12-13T10:59:19.765Z,6.40
2018-12-13T11:01:53.011Z,5.93
2018-12-13T11:04:20.735Z,6.30
2018-12-13T11:06:48.461Z,6.03
2018-12-13T11:09:16.216Z,6.50
2018-12-13T11:11:43.965Z,6.33
2018-12-13T11:14:11.696Z,5.90
2018-12-13T11:16:39.732Z,6.03
2018-12-13T11:19:07.533Z,6.27
2018-12-13T11:21:35.464Z,6.40
2018-12-13T11:24:03.337Z,5.90
2018-12-13T11:26:31.132Z,6.07
2018-12-13T11:29:35.129Z,6.30
2018-12-13T11:32:02.948Z,5.87
2018-12-13T11:34:30.755Z,5.73
2018-12-13T11:36:58.552Z,5.70
2018-12-13T11:39:26.324Z,5.63
2018-12-13T11:41:54.061Z,5.23
2018-12-13T11:44:21.918Z,5.53
2018-12-13T11:46:49.752Z,5.80
2018-12-13T11:49:17.543Z,5.17
2018-12-13T11:51:45.307Z,5.30
2018-12-13T11:54:41.216Z,4.87
2018-12-13T11:57:09.000Z,4.97
2018-12-13T11:59:36.743Z,4.40
2018-12-13T12:02:04.503Z,5.27
2018-12-13T12:04:32.291Z,5.03
2018-12-13T12:07:00.074Z,5.00
2018-12-13T12:09:27.863Z,5.47
2018-12-13T12:11:55.763Z,5.30
2018-12-13T12:14:23.969Z,5.43
2018-12-13T12:16:51.877Z,4.60
2018-12-13T12:19:19.661Z,4.27
2018-12-13T12:21:48.050Z,4.47
2018-12-13T12:24:15.765Z,4.37
2018-12-13T12:26:44.193Z,4.60
2018-12-13T12:29:11.934Z,4.40
2018-12-13T12:31:39.723Z,4.30
2018-12-13T12:34:07.560Z,4.07
2018-12-13T12:36:35.267Z,3.60
2018-12-13T12:39:05.215Z,3.73
2018-12-13T12:41:33.014Z,3.83
2018-12-13T12:44:00.732Z,3.60
2018-12-13T12:46:28.468Z,3.43
2018-12-13T12:48:56.204Z,3.37
2018-12-13T12:51:23.985Z,3.40
2018-12-13T12:53:51.699Z,3.10
2018-12-13T12:56:19.438Z,3.30
2018-12-13T12:58:47.203Z,3.60
2018-12-13T13:01:14.916Z,3.27
2018-12-13T13:03:42.661Z,3.10
2018-12-13T13:06:10.434Z,3.27
2018-12-13T13:08:38.211Z,3.10
2018-12-13T13:11:06.077Z,2.87
2018-12-13T13:13:33.821Z,3.53
2018-12-13T13:16:01.575Z,3.47
2018-12-13T13:18:29.334Z,3.50
2018-12-13T13:20:57.049Z,3.33
2018-12-13T13:23:24.841Z,3.53
2018-12-13T13:25:52.604Z,3.47
2018-12-13T13:28:20.333Z,3.57
2018-12-13T13:30:48.045Z,3.10
2018-12-13T13:33:15.845Z,3.50
2018-12-13T13:35:43.564Z,3.13
2018-12-13T13:38:11.304Z,3.97
2018-12-13T13:40:39.096Z,3.40
2018-12-13T13:43:06.901Z,3.50
2018-12-13T13:45:34.668Z,3.90
2018-12-13T13:48:02.463Z,3.50
2018-12-13T13:50:30.212Z,3.40
2018-12-13T13:52:58.058Z,3.60
2018-12-13T13:55:25.833Z,3.37
2018-12-13T13:57:53.599Z,3.50
2018-12-13T14:00:21.386Z,3.20
2018-12-13T14:02:49.151Z,3.60
2018-12-13T14:05:16.891Z,3.43
2018-12-13T14:07:44.680Z,3.40
2018-12-13T14:10:12.564Z,3.83
2018-12-13T14:12:40.318Z,3.20
2018-12-13T14:15:08.381Z,3.30
2018-12-13T14:17:36.097Z,3.30
2018-12-13T14:20:04.132Z,3.57
2018-12-13T14:22:31.921Z,3.63
2018-12-13T14:24:59.688Z,4.03
2018-12-13T14:27:27.626Z,3.63
2018-12-13T14:29:55.374Z,4.13
2018-12-13T14:32:23.125Z,4.10
2018-12-13T14:34:57.349Z,4.70
2018-12-13T14:37:20.758Z,4.40
2018-12-13T14:39:48.545Z,4.83
2018-12-13T14:42:16.267Z,4.83
2018-12-13T14:44:44.117Z,4.80
2018-12-13T14:47:11.897Z,4.90
2018-12-13T14:49:39.753Z,4.40
2018-12-13T14:52:07.544Z,4.63
2018-12-13T14:54:35.297Z,4.57
2018-12-13T14:57:03.250Z,4.47
2018-12-13T14:59:30.980Z,4.20
2018-12-13T15:01:58.797Z,4.23
2018-12-13T15:04:26.510Z,4.37
2018-12-13T15:06:54.270Z,4.50
2018-12-13T15:09:22.021Z,5.47
2018-12-13T15:11:49.777Z,5.10
2018-12-13T15:14:17.591Z,5.10
2018-12-13T15:16:45.459Z,4.73
2018-12-13T15:19:13.215Z,4.33
2018-12-13T15:21:41.013Z,4.60
2018-12-13T15:24:08.704Z,4.97
2018-12-13T15:26:36.486Z,5.60
2018-12-13T15:29:05.257Z,5.17
2018-12-13T15:31:33.045Z,5.43
2018-12-13T15:34:00.878Z,5.53
2018-12-13T15:36:28.641Z,5.23
2018-12-13T15:38:56.428Z,5.50
2018-12-13T15:41:24.260Z,5.67
2018-12-13T15:43:52.024Z,5.50
2018-12-13T15:46:19.788Z,5.10
2018-12-13T15:48:47.763Z,5.70
2018-12-13T15:51:15.580Z,28.73
2018-12-13T15:53:43.309Z,7.83
2018-12-13T15:56:11.071Z,6.57
2018-12-13T15:58:38.820Z,5.57
2018-12-13T16:01:06.565Z,5.23
2018-12-13T16:03:34.306Z,5.60
2018-12-13T16:06:02.092Z,5.63
2018-12-13T16:08:29.843Z,5.30
2018-12-13T16:10:57.932Z,5.87
2018-12-13T16:13:26.222Z,5.50
2018-12-13T16:15:54.021Z,5.43
2018-12-13T16:18:21.770Z,5.17
2018-12-13T16:20:49.522Z,5.10
2018-12-13T16:23:17.666Z,5.60
2018-12-13T16:25:45.427Z,5.63
2018-12-13T16:28:13.168Z,5.93
2018-12-13T16:30:40.947Z,5.57
2018-12-13T16:33:08.745Z,5.63
2018-12-13T16:35:36.492Z,6.07
2018-12-13T16:38:06.032Z,5.50
2018-12-13T16:40:33.876Z,5.50
2018-12-13T16:43:01.652Z,5.63
2018-12-13T16:45:29.404Z,5.23
2018-12-13T16:47:57.186Z,5.40
2018-12-13T16:50:24.968Z,5.93
2018-12-13T16:52:53.448Z,4.77
2018-12-13T16:55:21.281Z,5.43
2018-12-13T16:57:49.036Z,5.30
2018-12-13T17:00:16.813Z,5.70
2018-12-13T17:02:45.332Z,5.40
2018-12-13T17:05:13.057Z,5.47
2018-12-13T17:07:40.829Z,5.80
2018-12-13T17:10:09.134Z,6.67
2018-12-13T17:12:36.929Z,6.20
2018-12-13T17:15:05.506Z,6.20
2018-12-13T17:17:33.315Z,6.80
2018-12-13T17:20:01.132Z,6.60
2018-12-13T17:22:29.153Z,6.77
2018-12-13T17:24:57.104Z,7.13
2018-12-13T17:27:25.168Z,6.10
2018-12-13T17:29:53.089Z,7.33
2018-12-13T17:32:20.974Z,6.70
2018-12-13T17:34:48.902Z,6.47
2018-12-13T17:37:16.785Z,7.47
2018-12-13T17:39:44.671Z,7.10
2018-12-13T17:42:12.452Z,7.87
2018-12-13T17:44:40.201Z,7.77
2018-12-13T17:47:07.981Z,7.40
2018-12-13T17:49:36.451Z,7.73
2018-12-13T17:52:04.385Z,7.67
2018-12-13T17:54:32.192Z,6.97
2018-12-13T17:56:59.945Z,7.13
2018-12-13T17:59:27.734Z,7.97
2018-12-13T18:01:55.657Z,6.90
2018-12-13T18:04:24.382Z,6.63
2018-12-13T18:06:52.133Z,6.80
2018-12-13T18:09:19.920Z,6.87
2018-12-13T18:11:47.639Z,7.27
2018-12-13T18:14:15.428Z,6.93
2018-12-13T18:16:43.559Z,7.30
2018-12-13T18:19:11.571Z,6.80
2018-12-13T18:21:39.374Z,6.17
2018-12-13T18:24:07.209Z,6.60
2018-12-13T18:26:34.938Z,6.50
2018-12-13T18:29:02.827Z,6.73
2018-12-13T18:31:30.529Z,6.97
2018-12-13T18:33:58.290Z,6.93
2018-12-13T18:36:26.119Z,6.37
2018-12-13T18:38:53.825Z,7.03
2018-12-13T18:41:21.604Z,6.40
2018-12-13T18:43:49.369Z,6.47
2018-12-13T18:46:17.148Z,6.10
2018-12-13T18:48:45.555Z,5.40
2018-12-13T18:51:13.382Z,5.80
2018-12-13T18:53:41.109Z,5.77
2018-12-13T18:56:08.841Z,5.87
2018-12-13T18:58:36.659Z,4.83
2018-12-13T19:01:04.388Z,5.13
2018-12-13T19:03:32.109Z,5.37
2018-12-13T19:05:59.835Z,5.03
2018-12-13T19:08:27.825Z,4.83
2018-12-13T19:10:56.639Z,4.50
2018-12-13T19:13:25.017Z,4.77
2018-12-13T19:15:52.944Z,5.27
2018-12-13T19:18:20.701Z,4.70
2018-12-13T19:20:48.533Z,5.10
2018-12-13T19:23:16.331Z,4.43
2018-12-13T19:25:44.760Z,5.03
2018-12-13T19:28:12.578Z,4.60
2018-12-13T19:30:41.002Z,4.83
2018-12-13T19:33:08.810Z,4.87
2018-12-13T19:35:36.614Z,4.43
2018-12-13T19:38:04.400Z,4.60
2018-12-13T19:40:32.223Z,4.70
2018-12-13T19:43:00.034Z,4.67
2018-12-13T19:45:27.816Z,4.80
2018-12-13T19:47:55.806Z,4.70
2018-12-13T19:50:23.624Z,4.70
2018-12-13T19:52:51.432Z,4.80
2018-12-13T19:55:19.248Z,4.33
2018-12-13T19:57:47.013Z,4.60
2018-12-13T20:00:14.752Z,4.67
2018-12-13T20:02:42.544Z,4.50
2018-12-13T20:05:10.292Z,5.30
2018-12-13T20:07:38.034Z,5.87
2018-12-13T20:10:06.993Z,5.03
2018-12-13T20:12:34.749Z,5.40
2018-12-13T20:15:02.584Z,5.03
2018-12-13T20:17:30.360Z,4.57
2018-12-13T20:19:58.080Z,4.90
2018-12-13T20:22:25.810Z,5.10
2018-12-13T20:24:53.600Z,4.80
2018-12-13T20:27:21.693Z,4.53
2018-12-13T20:29:49.521Z,5.30
2018-12-13T20:32:17.524Z,5.13
2018-12-13T20:34:45.956Z,5.10
2018-12-13T20:37:13.972Z,5.70
2018-12-13T20:39:41.763Z,6.10
2018-12-13T20:42:09.525Z,5.67
2018-12-13T20:44:37.286Z,5.60
2018-12-13T20:47:05.009Z,6.23
2018-12-13T20:49:33.515Z,5.57
2018-12-13T20:52:01.394Z,6.37
2018-12-13T20:54:29.130Z,6.10
2018-12-13T20:56:56.876Z,6.13
2018-12-13T20:59:24.659Z,6.37
2018-12-13T21:01:53.148Z,6.67
2018-12-13T21:04:21.946Z,6.63
2018-12-13T21:06:54.141Z,6.97
2018-12-13T21:09:21.926Z,6.97
2018-12-13T21:11:49.616Z,7.63
2018-12-13T21:14:17.335Z,7.73
2018-12-13T21:16:45.178Z,7.30
2018-12-13T21:19:12.934Z,6.93
2018-12-13T21:21:40.670Z,7.80
2018-12-13T21:24:08.454Z,8.10
2018-12-13T21:26:36.255Z,7.67
2018-12-13T21:29:04.138Z,7.93
2018-12-13T21:31:32.004Z,7.77
2018-12-13T21:33:59.753Z,8.30
2018-12-13T21:36:27.514Z,7.87
2018-12-13T21:38:55.288Z,7.70
2018-12-13T21:41:23.042Z,8.33
2018-12-13T21:43:51.072Z,7.70
2018-12-13T21:46:19.439Z,7.63
2018-12-13T21:48:47.271Z,7.90
2018-12-13T21:51:15.042Z,8.03
2018-12-13T21:53:42.882Z,8.03
2018-12-13T21:56:10.744Z,8.07
2018-12-13T21:58:38.530Z,7.57
2018-12-13T22:01:06.330Z,8.33
2018-12-13T22:03:34.154Z,7.87
2018-12-13T22:06:01.929Z,8.00
2018-12-13T22:08:29.701Z,9.30
2018-12-13T22:10:57.548Z,8.27
2018-12-13T22:13:25.306Z,8.70
2018-12-13T22:15:53.021Z,8.57
2018-12-13T22:18:20.840Z,8.67
2018-12-13T22:20:48.612Z,8.67
2018-12-13T22:23:16.360Z,8.50
2018-12-13T22:25:44.209Z,9.43
2018-12-13T22:28:11.991Z,9.27
2018-12-13T22:30:39.737Z,9.53
2018-12-13T22:33:07.558Z,8.93
2018-12-13T22:35:35.288Z,8.23
2018-12-13T22:38:03.172Z,10.53
2018-12-13T22:40:30.968Z,9.97
2018-12-13T22:42:58.740Z,9.80
2018-12-13T22:45:26.522Z,10.00
2018-12-13T22:47:55.070Z,10.13
2018-12-13T22:50:22.806Z,10.37
2018-12-13T22:52:50.552Z,10.53
2018-12-13T22:55:18.296Z,11.07
2018-12-13T22:57:46.042Z,10.43
2018-12-13T23:00:13.872Z,9.97
2018-12-13T23:02:41.644Z,11.30
2018-12-13T23:05:09.437Z,11.37
2018-12-13T23:07:37.196Z,10.97
2018-12-13T23:10:05.092Z,11.10
2018-12-13T23:12:32.945Z,10.83
2018-12-13T23:15:00.705Z,12.33
2018-12-13T23:17:28.596Z,11.57
2018-12-13T23:19:56.412Z,11.57
2018-12-13T23:22:24.202Z,11.33
2018-12-13T23:24:52.005Z,10.93
2018-12-13T23:27:19.784Z,12.00
2018-12-13T23:29:47.556Z,11.60
2018-12-13T23:32:15.368Z,12.00
2018-12-13T23:34:43.089Z,12.70
2018-12-13T23:37:10.927Z,12.43
2018-12-13T23:39:38.604Z,12.30
2018-12-13T23:42:06.349Z,11.63
2018-12-13T23:44:34.153Z,12.97
2018-12-13T23:47:01.905Z,12.37
2018-12-13T23:49:29.734Z,11.57
2018-12-13T23:51:57.469Z,12.90
2018-12-13T23:54:25.279Z,12.37
2018-12-13T23:56:53.102Z,12.20
2018-12-13T23:59:20.897Z,12.13
